createdAt,value
2019-05-10T00:00:04.549Z,965.46
2019-05-10T00:01:04.589Z,965.44
2019-05-10T00:02:05.042Z,965.55
2019-05-10T00:03:04.537Z,965.60
2019-05-10T00:04:04.539Z,965.55
2019-05-10T00:05:04.827Z,965.58
2019-05-10T00:06:04.887Z,965.65
2019-05-10T00:07:04.868Z,965.60
2019-05-10T00:08:05.061Z,965.68
2019-05-10T00:09:04.610Z,965.55
2019-05-10T00:10:05.235Z,965.65
2019-05-10T00:11:05.310Z,965.60
2019-05-10T00:12:05.312Z,965.50
2019-05-10T00:13:04.574Z,965.55
2019-05-10T00:14:05.317Z,965.60
2019-05-10T00:15:05.133Z,965.66
2019-05-10T00:16:04.627Z,965.59
2019-05-10T00:17:04.687Z,965.60
2019-05-10T00:18:04.766Z,965.53
2019-05-10T00:19:05.360Z,965.61
2019-05-10T00:20:09.826Z,965.53
2019-05-10T00:21:05.205Z,965.42
2019-05-10T00:22:04.672Z,965.51
2019-05-10T00:23:05.136Z,965.59
2019-05-10T00:24:05.251Z,965.70
2019-05-10T00:25:05.685Z,965.62
2019-05-10T00:26:04.541Z,965.65
2019-05-10T00:27:04.866Z,965.49
2019-05-10T00:28:05.362Z,965.55
2019-05-10T00:29:05.402Z,965.63
2019-05-10T00:30:05.351Z,965.63
2019-05-10T00:31:05.162Z,965.60
2019-05-10T00:32:05.150Z,965.60
2019-05-10T00:33:05.198Z,965.53
2019-05-10T00:34:04.784Z,965.36
2019-05-10T00:35:05.043Z,965.61
2019-05-10T00:36:05.253Z,965.59
2019-05-10T00:37:05.411Z,965.60
2019-05-10T00:38:04.680Z,965.60
2019-05-10T00:39:04.779Z,965.61
2019-05-10T00:40:05.397Z,965.60
2019-05-10T00:41:05.011Z,965.57
2019-05-10T00:42:04.568Z,965.46
2019-05-10T00:43:04.679Z,965.62
2019-05-10T00:44:05.209Z,965.60
2019-05-10T00:45:04.632Z,965.52
2019-05-10T00:46:05.283Z,965.60
2019-05-10T00:47:04.919Z,965.58
2019-05-10T00:48:04.931Z,965.63
2019-05-10T00:49:05.138Z,965.71
2019-05-10T00:50:05.186Z,965.63
2019-05-10T00:51:05.121Z,965.50
2019-05-10T00:52:04.727Z,965.56
2019-05-10T00:53:05.352Z,965.72
2019-05-10T00:54:09.908Z,965.56
2019-05-10T00:55:19.382Z,965.75
2019-05-10T00:56:05.175Z,965.61
2019-05-10T00:57:04.741Z,965.69
2019-05-10T00:58:05.260Z,965.64
2019-05-10T00:59:05.422Z,965.78
2019-05-10T01:00:04.959Z,965.69
2019-05-10T01:01:05.040Z,965.61
2019-05-10T01:02:05.458Z,965.64
2019-05-10T01:03:04.897Z,965.78
2019-05-10T01:04:04.585Z,965.66
2019-05-10T01:05:05.026Z,965.66
2019-05-10T01:06:04.765Z,965.61
2019-05-10T01:07:05.235Z,965.81
2019-05-10T01:08:05.238Z,965.78
2019-05-10T01:09:05.339Z,965.56
2019-05-10T01:10:04.744Z,965.78
2019-05-10T01:11:05.133Z,965.86
2019-05-10T01:12:05.370Z,965.72
2019-05-10T01:13:04.502Z,965.78
2019-05-10T01:14:10.060Z,965.69
2019-05-10T01:15:05.441Z,965.66
2019-05-10T01:16:04.798Z,965.69
2019-05-10T01:17:04.909Z,965.61
2019-05-10T01:18:05.219Z,965.72
2019-05-10T01:19:05.453Z,965.69
2019-05-10T01:20:04.864Z,965.72
2019-05-10T01:21:05.363Z,965.89
2019-05-10T01:22:04.804Z,965.83
2019-05-10T01:23:04.802Z,965.72
2019-05-10T01:24:05.077Z,965.78
2019-05-10T01:25:04.741Z,965.77
2019-05-10T01:26:05.467Z,965.77
2019-05-10T01:27:04.490Z,965.89
2019-05-10T01:28:04.697Z,965.83
2019-05-10T01:29:04.702Z,965.92
2019-05-10T01:30:05.170Z,965.89
2019-05-10T01:31:04.566Z,965.80
2019-05-10T01:32:04.653Z,965.86
2019-05-10T01:33:05.438Z,965.92
2019-05-10T01:34:05.488Z,965.81
2019-05-10T01:35:05.454Z,965.86
2019-05-10T01:36:04.797Z,965.98
2019-05-10T01:37:04.862Z,965.81
2019-05-10T01:38:05.147Z,966.01
2019-05-10T01:39:04.560Z,965.92
2019-05-10T01:40:04.809Z,965.95
2019-05-10T01:41:05.607Z,965.98
2019-05-10T01:42:05.370Z,965.95
2019-05-10T01:43:04.798Z,965.79
2019-05-10T01:44:09.774Z,965.87
2019-05-10T01:45:05.134Z,965.90
2019-05-10T01:46:05.155Z,965.85
2019-05-10T01:47:04.582Z,965.99
2019-05-10T01:48:04.626Z,965.96
2019-05-10T01:49:05.173Z,966.08
2019-05-10T01:50:05.388Z,965.94
2019-05-10T01:51:04.875Z,965.97
2019-05-10T01:52:04.933Z,966.05
2019-05-10T01:53:04.900Z,965.94
2019-05-10T01:54:05.182Z,966.03
2019-05-10T01:55:05.173Z,966.03
2019-05-10T01:56:05.500Z,966.09
2019-05-10T01:57:05.534Z,966.06
2019-05-10T01:58:04.940Z,966.04
2019-05-10T01:59:05.356Z,966.01
2019-05-10T02:00:04.703Z,965.98
2019-05-10T02:01:05.328Z,966.04
2019-05-10T02:02:05.378Z,966.13
2019-05-10T02:03:05.403Z,966.19
2019-05-10T02:04:10.018Z,966.16
2019-05-10T02:05:05.362Z,966.16
2019-05-10T02:06:04.886Z,966.08
2019-05-10T02:07:05.581Z,966.11
2019-05-10T02:08:04.612Z,966.08
2019-05-10T02:09:04.502Z,966.11
2019-05-10T02:10:05.089Z,966.20
2019-05-10T02:11:05.050Z,966.20
2019-05-10T02:12:04.691Z,966.20
2019-05-10T02:13:04.970Z,966.17
2019-05-10T02:14:05.309Z,966.03
2019-05-10T02:15:04.847Z,966.29
2019-05-10T02:16:04.878Z,966.29
2019-05-10T02:17:04.991Z,966.21
2019-05-10T02:18:04.565Z,966.23
2019-05-10T02:19:05.379Z,966.32
2019-05-10T02:20:04.757Z,966.46
2019-05-10T02:21:04.728Z,966.27
2019-05-10T02:22:04.961Z,966.41
2019-05-10T02:23:05.105Z,966.27
2019-05-10T02:24:05.237Z,966.47
2019-05-10T02:25:05.165Z,966.44
2019-05-10T02:26:10.253Z,966.36
2019-05-10T02:27:04.884Z,966.41
2019-05-10T02:28:05.338Z,966.33
2019-05-10T02:29:04.815Z,966.44
2019-05-10T02:30:04.961Z,966.53
2019-05-10T02:31:04.654Z,966.50
2019-05-10T02:32:04.649Z,966.50
2019-05-10T02:33:05.263Z,966.45
2019-05-10T02:34:05.352Z,966.62
2019-05-10T02:35:05.530Z,966.53
2019-05-10T02:36:04.680Z,966.45
2019-05-10T02:37:05.097Z,966.56
2019-05-10T02:38:04.855Z,966.65
2019-05-10T02:39:04.881Z,966.54
2019-05-10T02:40:05.144Z,966.65
2019-05-10T02:41:04.634Z,966.54
2019-05-10T02:42:05.015Z,966.56
2019-05-10T02:43:05.141Z,966.62
2019-05-10T02:44:05.389Z,966.62
2019-05-10T02:45:05.418Z,966.62
2019-05-10T02:46:05.011Z,966.54
2019-05-10T02:47:05.648Z,966.65
2019-05-10T02:48:04.534Z,966.74
2019-05-10T02:49:04.695Z,966.68
2019-05-10T02:50:05.161Z,966.62
2019-05-10T02:51:04.839Z,966.68
2019-05-10T02:52:04.474Z,966.62
2019-05-10T02:53:04.868Z,966.65
2019-05-10T02:54:05.088Z,966.71
2019-05-10T02:55:04.749Z,966.71
2019-05-10T02:56:05.038Z,966.71
2019-05-10T02:57:05.086Z,966.65
2019-05-10T02:58:05.248Z,966.79
2019-05-10T02:59:04.673Z,966.71
2019-05-10T03:00:04.996Z,966.65
2019-05-10T03:01:05.032Z,966.76
2019-05-10T03:02:05.362Z,966.73
2019-05-10T03:03:04.934Z,966.76
2019-05-10T03:04:04.705Z,966.73
2019-05-10T03:05:05.089Z,966.70
2019-05-10T03:06:05.135Z,966.81
2019-05-10T03:07:05.759Z,966.93
2019-05-10T03:08:04.618Z,966.90
2019-05-10T03:09:04.879Z,966.95
2019-05-10T03:10:04.836Z,966.98
2019-05-10T03:11:05.111Z,966.84
2019-05-10T03:12:05.225Z,966.87
2019-05-10T03:13:04.597Z,966.98
2019-05-10T03:14:04.947Z,966.92
2019-05-10T03:15:05.147Z,966.98
2019-05-10T03:16:04.530Z,966.98
2019-05-10T03:17:04.560Z,966.92
2019-05-10T03:18:04.680Z,966.86
2019-05-10T03:19:04.994Z,967.00
2019-05-10T03:20:05.245Z,966.86
2019-05-10T03:21:05.225Z,967.11
2019-05-10T03:22:04.962Z,967.02
2019-05-10T03:23:05.107Z,966.97
2019-05-10T03:24:05.271Z,967.08
2019-05-10T03:25:05.245Z,967.08
2019-05-10T03:26:04.648Z,967.13
2019-05-10T03:27:05.215Z,967.07
2019-05-10T03:28:04.754Z,967.16
2019-05-10T03:29:05.252Z,967.13
2019-05-10T03:30:05.371Z,967.02
2019-05-10T03:31:05.439Z,967.07
2019-05-10T03:32:05.433Z,967.02
2019-05-10T03:33:05.496Z,967.10
2019-05-10T03:34:05.541Z,967.13
2019-05-10T03:35:04.561Z,967.13
2019-05-10T03:36:04.645Z,967.13
2019-05-10T03:37:04.793Z,967.24
2019-05-10T03:38:05.499Z,967.13
2019-05-10T03:39:04.846Z,967.16
2019-05-10T03:40:04.902Z,967.07
2019-05-10T03:41:04.883Z,967.18
2019-05-10T03:42:04.535Z,967.19
2019-05-10T03:43:05.056Z,967.24
2019-05-10T03:44:04.620Z,967.21
2019-05-10T03:45:04.815Z,967.21
2019-05-10T03:46:04.509Z,967.30
2019-05-10T03:47:05.023Z,967.33
2019-05-10T03:48:05.408Z,967.33
2019-05-10T03:49:04.711Z,967.33
2019-05-10T03:50:05.333Z,967.27
2019-05-10T03:51:05.129Z,967.27
2019-05-10T03:52:05.256Z,967.21
2019-05-10T03:53:04.934Z,967.40
2019-05-10T03:54:05.203Z,967.21
2019-05-10T03:55:04.462Z,967.30
2019-05-10T03:56:04.589Z,967.43
2019-05-10T03:57:14.404Z,967.43
2019-05-10T03:58:04.602Z,967.46
2019-05-10T03:59:05.194Z,967.43
2019-05-10T04:00:05.343Z,967.46
2019-05-10T04:01:05.387Z,967.43
2019-05-10T04:02:05.188Z,967.40
2019-05-10T04:03:04.524Z,967.40
2019-05-10T04:04:09.856Z,967.51
2019-05-10T04:05:04.517Z,967.54
2019-05-10T04:06:04.977Z,967.48
2019-05-10T04:07:05.549Z,967.57
2019-05-10T04:08:04.608Z,967.54
2019-05-10T04:09:04.944Z,967.48
2019-05-10T04:10:04.696Z,967.54
2019-05-10T04:11:04.846Z,967.56
2019-05-10T04:12:04.984Z,967.56
2019-05-10T04:13:05.264Z,967.54
2019-05-10T04:14:05.377Z,967.59
2019-05-10T04:15:04.514Z,967.65
2019-05-10T04:16:04.947Z,967.56
2019-05-10T04:17:05.424Z,967.70
2019-05-10T04:18:05.031Z,967.53
2019-05-10T04:19:10.230Z,967.67
2019-05-10T04:20:04.607Z,967.59
2019-05-10T04:21:04.618Z,967.67
2019-05-10T04:22:05.095Z,967.59
2019-05-10T04:23:05.049Z,967.67
2019-05-10T04:24:05.197Z,967.59
2019-05-10T04:25:05.701Z,967.64
2019-05-10T04:26:05.241Z,967.75
2019-05-10T04:27:04.869Z,967.70
2019-05-10T04:28:05.166Z,967.64
2019-05-10T04:29:05.190Z,967.67
2019-05-10T04:30:04.750Z,967.75
2019-05-10T04:31:05.002Z,967.64
2019-05-10T04:32:04.592Z,967.67
2019-05-10T04:33:04.778Z,967.75
2019-05-10T04:34:04.946Z,967.75
2019-05-10T04:35:04.811Z,967.72
2019-05-10T04:36:05.132Z,967.75
2019-05-10T04:37:04.736Z,967.81
2019-05-10T04:38:05.332Z,967.66
2019-05-10T04:39:04.539Z,967.83
2019-05-10T04:40:04.696Z,967.69
2019-05-10T04:41:05.281Z,967.75
2019-05-10T04:42:05.423Z,967.83
2019-05-10T04:43:04.830Z,967.89
2019-05-10T04:44:04.835Z,967.78
2019-05-10T04:45:04.940Z,967.94
2019-05-10T04:46:05.311Z,967.80
2019-05-10T04:47:05.363Z,967.83
2019-05-10T04:48:05.340Z,967.80
2019-05-10T04:49:04.924Z,967.83
2019-05-10T04:50:05.513Z,967.88
2019-05-10T04:51:04.551Z,967.88
2019-05-10T04:52:04.661Z,967.91
2019-05-10T04:53:09.768Z,967.94
2019-05-10T04:54:05.157Z,968.05
2019-05-10T04:55:05.429Z,967.93
2019-05-10T04:56:04.800Z,967.93
2019-05-10T04:57:05.319Z,967.71
2019-05-10T04:58:04.573Z,967.93
2019-05-10T04:59:04.502Z,967.84
2019-05-10T05:00:04.702Z,967.87
2019-05-10T05:01:04.653Z,967.87
2019-05-10T05:02:05.173Z,967.90
2019-05-10T05:03:04.876Z,967.84
2019-05-10T05:04:05.072Z,967.95
2019-05-10T05:05:04.694Z,967.98
2019-05-10T05:06:05.277Z,967.89
2019-05-10T05:07:05.231Z,967.92
2019-05-10T05:08:06.784Z,967.92
2019-05-10T05:09:04.777Z,967.86
2019-05-10T05:10:05.069Z,967.81
2019-05-10T05:11:04.648Z,967.92
2019-05-10T05:12:06.705Z,967.86
2019-05-10T05:13:09.920Z,967.97
2019-05-10T05:14:09.817Z,967.91
2019-05-10T05:15:05.493Z,968.11
2019-05-10T05:16:04.503Z,967.94
2019-05-10T05:17:05.053Z,968.05
2019-05-10T05:18:04.587Z,968.14
2019-05-10T05:19:04.675Z,968.08
2019-05-10T05:20:04.913Z,968.16
2019-05-10T05:21:05.031Z,968.08
2019-05-10T05:22:04.764Z,968.11
2019-05-10T05:23:04.785Z,968.10
2019-05-10T05:24:04.499Z,968.16
2019-05-10T05:25:05.290Z,968.24
2019-05-10T05:26:04.654Z,968.27
2019-05-10T05:27:05.229Z,968.30
2019-05-10T05:28:08.714Z,968.27
2019-05-10T05:29:05.347Z,968.41
2019-05-10T05:30:04.531Z,968.36
2019-05-10T05:31:05.033Z,968.41
2019-05-10T05:32:04.478Z,968.41
2019-05-10T05:33:04.899Z,968.38
2019-05-10T05:34:06.612Z,968.35
2019-05-10T05:35:05.326Z,968.49
2019-05-10T05:36:04.905Z,968.43
2019-05-10T05:37:04.827Z,968.46
2019-05-10T05:38:05.040Z,968.40
2019-05-10T05:39:04.931Z,968.51
2019-05-10T05:40:05.087Z,968.54
2019-05-10T05:41:04.600Z,968.51
2019-05-10T05:42:04.794Z,968.42
2019-05-10T05:43:09.798Z,968.54
2019-05-10T05:44:05.524Z,968.50
2019-05-10T05:45:04.674Z,968.50
2019-05-10T05:46:05.199Z,968.53
2019-05-10T05:47:05.327Z,968.50
2019-05-10T05:48:05.406Z,968.46
2019-05-10T05:49:04.522Z,968.61
2019-05-10T05:50:05.084Z,968.63
2019-05-10T05:51:04.983Z,968.60
2019-05-10T05:52:04.923Z,968.57
2019-05-10T05:53:04.978Z,968.78
2019-05-10T05:54:04.812Z,968.65
2019-05-10T05:55:05.057Z,968.50
2019-05-10T05:56:14.418Z,968.61
2019-05-10T05:57:05.286Z,968.53
2019-05-10T05:58:24.044Z,968.71
2019-05-10T05:59:09.147Z,968.55
2019-05-10T06:00:07.171Z,968.71
2019-05-10T06:01:04.549Z,968.58
2019-05-10T06:02:09.551Z,968.63
2019-05-10T06:03:05.230Z,968.53
2019-05-10T06:04:10.642Z,968.65
2019-05-10T06:05:05.039Z,968.61
2019-05-10T06:06:21.411Z,968.73
2019-05-10T06:07:04.828Z,968.71
2019-05-10T06:08:24.589Z,968.71
2019-05-10T06:09:06.103Z,968.61
2019-05-10T06:11:09.515Z,968.75
2019-05-10T06:12:12.484Z,968.79
2019-05-10T06:13:05.021Z,968.64
2019-05-10T06:14:12.715Z,968.69
2019-05-10T06:15:05.147Z,968.81
2019-05-10T06:16:14.475Z,968.74
2019-05-10T06:17:05.372Z,968.76
2019-05-10T06:18:12.044Z,968.71
2019-05-10T06:19:04.757Z,968.67
2019-05-10T06:20:07.482Z,968.77
2019-05-10T06:21:04.893Z,968.71
2019-05-10T06:22:07.184Z,968.70
2019-05-10T06:23:07.387Z,968.67
2019-05-10T06:24:15.551Z,968.85
2019-05-10T06:25:05.375Z,968.79
2019-05-10T06:26:06.906Z,968.68
2019-05-10T06:27:05.431Z,968.83
2019-05-10T06:28:26.767Z,968.85
2019-05-10T06:29:17.195Z,968.81
2019-05-10T06:30:05.458Z,968.89
2019-05-10T06:31:05.048Z,968.86
2019-05-10T06:32:04.961Z,968.97
2019-05-10T06:33:13.512Z,968.92
2019-05-10T06:34:05.183Z,968.78
2019-05-10T06:35:04.630Z,968.84
2019-05-10T06:36:05.199Z,968.93
2019-05-10T06:37:05.276Z,968.80
2019-05-10T06:38:05.442Z,968.83
2019-05-10T06:39:04.961Z,968.96
2019-05-10T06:40:05.389Z,968.88
2019-05-10T06:42:04.665Z,968.90
2019-05-10T06:44:05.128Z,968.91
2019-05-10T06:45:16.022Z,968.86
2019-05-10T06:46:04.951Z,968.90
2019-05-10T06:47:11.270Z,968.82
2019-05-10T06:48:04.841Z,969.00
2019-05-10T06:49:10.939Z,968.92
2019-05-10T06:50:04.687Z,968.89
2019-05-10T06:51:12.311Z,968.90
2019-05-10T06:52:04.976Z,968.88
2019-05-10T06:53:10.875Z,968.88
2019-05-10T06:54:05.062Z,969.00
2019-05-10T06:55:05.354Z,969.01
2019-05-10T06:56:04.465Z,969.01
2019-05-10T06:57:04.747Z,968.99
2019-05-10T06:58:04.925Z,968.91
2019-05-10T06:59:15.813Z,968.91
2019-05-10T07:00:08.248Z,969.08
2019-05-10T07:01:04.924Z,968.97
2019-05-10T07:02:05.331Z,968.88
2019-05-10T07:03:04.874Z,968.96
2019-05-10T07:04:05.434Z,969.18
2019-05-10T07:05:05.536Z,969.14
2019-05-10T07:06:04.918Z,968.93
2019-05-10T07:07:20.273Z,968.95
2019-05-10T07:08:20.276Z,969.03
2019-05-10T07:09:05.334Z,968.99
2019-05-10T07:10:19.659Z,968.98
2019-05-10T07:11:05.316Z,969.06
2019-05-10T07:12:15.125Z,969.05
2019-05-10T07:13:07.142Z,968.93
2019-05-10T07:14:04.769Z,969.07
2019-05-10T07:15:05.908Z,968.94
2019-05-10T07:16:04.726Z,968.94
2019-05-10T07:17:05.086Z,968.91
2019-05-10T07:18:05.100Z,968.96
2019-05-10T07:19:05.453Z,969.01
2019-05-10T07:20:04.630Z,969.10
2019-05-10T07:21:08.714Z,969.16
2019-05-10T07:22:05.469Z,969.10
2019-05-10T07:23:07.871Z,969.04
2019-05-10T07:24:04.766Z,969.08
2019-05-10T07:25:07.788Z,969.14
2019-05-10T07:26:04.967Z,969.14
2019-05-10T07:27:06.273Z,969.16
2019-05-10T07:28:15.601Z,969.11
2019-05-10T07:29:04.923Z,968.99
2019-05-10T07:30:04.767Z,969.11
2019-05-10T07:31:04.959Z,969.11
2019-05-10T07:32:04.954Z,969.17
2019-05-10T07:33:05.344Z,969.11
2019-05-10T07:34:15.087Z,969.08
2019-05-10T07:35:04.600Z,969.23
2019-05-10T07:36:15.313Z,969.18
2019-05-10T07:37:04.874Z,969.24
2019-05-10T07:38:05.084Z,969.13
2019-05-10T07:39:10.711Z,969.34
2019-05-10T07:40:05.474Z,969.14
2019-05-10T07:41:05.500Z,969.12
2019-05-10T07:42:09.009Z,969.27
2019-05-10T07:43:04.911Z,969.25
2019-05-10T07:44:10.540Z,969.23
2019-05-10T07:45:05.168Z,969.26
2019-05-10T07:46:09.179Z,969.18
2019-05-10T07:47:04.742Z,969.30
2019-05-10T07:48:10.286Z,969.36
2019-05-10T07:49:04.786Z,969.37
2019-05-10T07:50:11.581Z,969.37
2019-05-10T07:51:05.335Z,969.41
2019-05-10T07:52:05.309Z,969.27
2019-05-10T07:53:04.660Z,969.38
2019-05-10T07:54:06.825Z,969.36
2019-05-10T07:55:05.237Z,969.42
2019-05-10T07:56:07.922Z,969.42
2019-05-10T07:57:05.346Z,969.51
2019-05-10T07:58:07.032Z,969.52
2019-05-10T07:59:05.460Z,969.49
2019-05-10T08:00:06.472Z,969.38
2019-05-10T08:01:05.318Z,969.49
2019-05-10T08:02:12.664Z,969.41
2019-05-10T08:03:17.560Z,969.47
2019-05-10T08:04:04.513Z,969.39
2019-05-10T08:05:10.679Z,969.39
2019-05-10T08:06:04.681Z,969.47
2019-05-10T08:07:10.434Z,969.39
2019-05-10T08:08:05.250Z,969.45
2019-05-10T08:09:09.732Z,969.42
2019-05-10T08:10:05.515Z,969.48
2019-05-10T08:11:04.823Z,969.36
2019-05-10T08:12:05.746Z,969.48
2019-05-10T08:13:04.491Z,969.47
2019-05-10T08:14:10.850Z,969.41
2019-05-10T08:15:04.575Z,969.46
2019-05-10T08:16:11.202Z,969.57
2019-05-10T08:17:09.008Z,969.50
2019-05-10T08:18:04.703Z,969.61
2019-05-10T08:19:04.718Z,969.55
2019-05-10T08:20:19.860Z,969.46
2019-05-10T08:21:21.229Z,969.51
2019-05-10T08:22:04.974Z,969.45
2019-05-10T08:23:04.640Z,969.54
2019-05-10T08:24:16.575Z,969.56
2019-05-10T08:25:05.511Z,969.56
2019-05-10T08:26:05.406Z,969.62
2019-05-10T08:27:14.743Z,969.54
2019-05-10T08:28:05.884Z,969.60
2019-05-10T08:29:13.317Z,969.54
2019-05-10T08:30:28.379Z,969.66
2019-05-10T08:31:04.825Z,969.55
2019-05-10T08:32:05.125Z,969.49
2019-05-10T08:33:13.528Z,969.52
2019-05-10T08:34:04.867Z,969.54
2019-05-10T08:35:15.903Z,969.60
2019-05-10T08:36:05.871Z,969.56
2019-05-10T08:37:04.559Z,969.53
2019-05-10T08:38:05.333Z,969.70
2019-05-10T08:39:13.634Z,969.49
2019-05-10T08:40:04.616Z,969.48
2019-05-10T08:41:14.235Z,969.50
2019-05-10T08:42:40.670Z,969.47
2019-05-10T08:43:12.783Z,969.44
2019-05-10T08:44:05.391Z,969.63
2019-05-10T08:45:09.159Z,969.57
2019-05-10T08:46:05.079Z,969.62
2019-05-10T08:47:13.416Z,969.47
2019-05-10T08:48:07.416Z,969.58
2019-05-10T08:49:05.318Z,969.52
2019-05-10T08:50:30.618Z,969.54
2019-05-10T08:51:07.887Z,969.54
2019-05-10T08:52:04.608Z,969.66
2019-05-10T08:53:10.678Z,969.60
2019-05-10T08:54:05.058Z,969.53
2019-05-10T08:55:05.138Z,969.62
2019-05-10T08:56:19.917Z,969.67
2019-05-10T08:57:05.810Z,969.67
2019-05-10T08:58:04.826Z,969.64
2019-05-10T08:59:14.739Z,969.63
2019-05-10T09:00:09.288Z,969.63
2019-05-10T09:01:26.467Z,969.68
2019-05-10T09:02:04.734Z,969.77
2019-05-10T09:03:13.795Z,969.70
2019-05-10T09:04:10.947Z,969.64
2019-05-10T09:05:05.373Z,969.79
2019-05-10T09:06:16.401Z,969.84
2019-05-10T09:07:04.619Z,969.81
2019-05-10T09:08:11.491Z,969.86
2019-05-10T09:09:09.694Z,969.86
2019-05-10T09:10:05.186Z,969.80
2019-05-10T09:11:07.433Z,969.86
2019-05-10T09:12:12.039Z,969.86
2019-05-10T09:13:04.830Z,969.82
2019-05-10T09:14:05.289Z,969.73
2019-05-10T09:15:13.030Z,969.90
2019-05-10T09:16:05.082Z,969.81
2019-05-10T09:17:07.490Z,969.87
2019-05-10T09:18:07.919Z,969.90
2019-05-10T09:19:04.497Z,969.98
2019-05-10T09:20:21.691Z,969.98
2019-05-10T09:21:14.102Z,970.10
2019-05-10T09:22:04.712Z,970.13
2019-05-10T09:23:14.143Z,970.11
2019-05-10T09:24:07.034Z,970.08
2019-05-10T09:25:04.664Z,970.05
2019-05-10T09:26:16.157Z,970.11
2019-05-10T09:27:05.264Z,970.25
2019-05-10T09:28:16.973Z,970.02
2019-05-10T09:29:04.633Z,970.22
2019-05-10T09:30:13.924Z,970.13
2019-05-10T09:31:22.533Z,970.13
2019-05-10T09:32:07.025Z,970.13
2019-05-10T09:33:10.577Z,970.16
2019-05-10T09:34:05.017Z,970.19
2019-05-10T09:35:09.174Z,970.21
2019-05-10T09:36:05.206Z,970.18
2019-05-10T09:37:14.130Z,970.24
2019-05-10T09:38:04.717Z,970.21
2019-05-10T09:39:15.214Z,970.29
2019-05-10T09:40:12.828Z,970.20
2019-05-10T09:41:04.896Z,970.32
2019-05-10T09:42:18.849Z,970.32
2019-05-10T09:43:12.106Z,970.26
2019-05-10T09:44:05.502Z,970.37
2019-05-10T09:45:04.654Z,970.22
2019-05-10T09:46:05.204Z,970.36
2019-05-10T09:47:05.517Z,970.52
2019-05-10T09:48:05.115Z,970.24
2019-05-10T09:49:18.334Z,970.29
2019-05-10T09:50:05.438Z,970.41
2019-05-10T09:51:05.607Z,970.32
2019-05-10T09:52:16.532Z,970.38
2019-05-10T09:53:10.448Z,970.29
2019-05-10T09:54:07.952Z,970.30
2019-05-10T09:55:14.906Z,970.30
2019-05-10T09:56:04.749Z,970.27
2019-05-10T09:57:04.813Z,970.30
2019-05-10T09:58:05.137Z,970.25
2019-05-10T09:59:07.544Z,970.34
2019-05-10T10:00:04.547Z,970.29
2019-05-10T10:01:18.844Z,970.26
2019-05-10T10:02:15.907Z,970.18
2019-05-10T10:03:08.531Z,970.32
2019-05-10T10:04:05.419Z,970.30
2019-05-10T10:05:04.479Z,970.30
2019-05-10T10:06:10.833Z,970.30
2019-05-10T10:07:04.896Z,970.25
2019-05-10T10:08:11.067Z,970.36
2019-05-10T10:09:09.734Z,970.22
2019-05-10T10:10:07.037Z,970.27
2019-05-10T10:11:15.632Z,970.27
2019-05-10T10:12:07.271Z,970.27
2019-05-10T10:13:13.969Z,970.36
2019-05-10T10:14:07.470Z,970.44
2019-05-10T10:15:09.038Z,970.44
2019-05-10T10:16:14.637Z,970.42
2019-05-10T10:17:04.645Z,970.42
2019-05-10T10:18:05.175Z,970.49
2019-05-10T10:19:07.507Z,970.44
2019-05-10T10:20:05.060Z,970.44
2019-05-10T10:21:05.553Z,970.47
2019-05-10T10:22:10.904Z,970.31
2019-05-10T10:23:07.582Z,970.40
2019-05-10T10:24:17.754Z,970.40
2019-05-10T10:25:07.740Z,970.50
2019-05-10T10:26:07.580Z,970.53
2019-05-10T10:27:07.704Z,970.47
2019-05-10T10:28:18.617Z,970.50
2019-05-10T10:29:07.618Z,970.56
2019-05-10T10:30:12.168Z,970.61
2019-05-10T10:31:08.143Z,970.55
2019-05-10T10:32:07.666Z,970.75
2019-05-10T10:33:11.158Z,970.66
2019-05-10T10:34:07.661Z,970.69
2019-05-10T10:35:04.494Z,970.64
2019-05-10T10:36:10.572Z,970.69
2019-05-10T10:37:04.687Z,970.66
2019-05-10T10:38:08.337Z,970.61
2019-05-10T10:39:07.727Z,970.78
2019-05-10T10:40:08.922Z,970.67
2019-05-10T10:41:04.749Z,970.72
2019-05-10T10:42:13.182Z,970.56
2019-05-10T10:43:07.753Z,970.68
2019-05-10T10:44:05.139Z,970.65
2019-05-10T10:45:07.347Z,970.65
2019-05-10T10:46:12.783Z,970.63
2019-05-10T10:47:07.553Z,970.72
2019-05-10T10:48:12.886Z,970.75
2019-05-10T10:49:05.885Z,970.75
2019-05-10T10:50:13.565Z,970.81
2019-05-10T10:51:05.028Z,970.68
2019-05-10T10:52:11.067Z,970.71
2019-05-10T10:53:08.206Z,970.77
2019-05-10T10:54:07.710Z,970.81
2019-05-10T10:55:10.951Z,970.96
2019-05-10T10:56:08.017Z,970.88
2019-05-10T10:57:04.662Z,970.88
2019-05-10T10:58:07.057Z,971.00
2019-05-10T10:59:04.569Z,970.92
2019-05-10T11:00:07.930Z,970.92
2019-05-10T11:01:21.126Z,970.95
2019-05-10T11:02:33.536Z,970.99
2019-05-10T11:03:04.456Z,970.90
2019-05-10T11:04:09.802Z,970.84
2019-05-10T11:05:04.535Z,970.90
2019-05-10T11:06:04.990Z,970.93
2019-05-10T11:07:11.355Z,970.90
2019-05-10T11:08:05.050Z,971.01
2019-05-10T11:09:05.181Z,970.92
2019-05-10T11:10:22.092Z,970.85
2019-05-10T11:11:04.969Z,970.76
2019-05-10T11:12:05.504Z,970.84
2019-05-10T11:13:18.936Z,970.81
2019-05-10T11:14:07.735Z,970.75
2019-05-10T11:15:05.212Z,970.88
2019-05-10T11:16:15.386Z,970.97
2019-05-10T11:17:05.253Z,970.82
2019-05-10T11:18:05.248Z,970.79
2019-05-10T11:19:15.688Z,970.81
2019-05-10T11:20:10.911Z,970.78
2019-05-10T11:21:05.310Z,970.81
2019-05-10T11:22:10.932Z,970.90
2019-05-10T11:23:04.837Z,970.87
2019-05-10T11:24:17.427Z,970.90
2019-05-10T11:25:12.663Z,970.73
2019-05-10T11:26:04.784Z,970.79
2019-05-10T11:27:12.862Z,970.85
2019-05-10T11:28:08.664Z,970.80
2019-05-10T11:29:05.525Z,970.89
2019-05-10T11:30:05.180Z,970.92
2019-05-10T11:31:05.127Z,970.90
2019-05-10T11:32:17.029Z,970.93
2019-05-10T11:33:04.997Z,970.94
2019-05-10T11:34:06.604Z,970.91
2019-05-10T11:35:05.891Z,971.00
2019-05-10T11:36:10.977Z,970.83
2019-05-10T11:37:04.993Z,971.01
2019-05-10T11:38:12.594Z,970.95
2019-05-10T11:39:06.425Z,971.10
2019-05-10T11:40:05.139Z,971.04
2019-05-10T11:41:12.887Z,971.07
2019-05-10T11:42:07.726Z,971.01
2019-05-10T11:43:04.740Z,970.90
2019-05-10T11:44:11.874Z,971.01
2019-05-10T11:45:04.555Z,970.99
2019-05-10T11:46:04.731Z,970.90
2019-05-10T11:47:26.620Z,971.07
2019-05-10T11:48:04.517Z,970.93
2019-05-10T11:49:05.084Z,970.96
2019-05-10T11:50:06.912Z,971.10
2019-05-10T11:51:15.422Z,970.99
2019-05-10T11:52:04.888Z,971.11
2019-05-10T11:53:13.089Z,971.05
2019-05-10T11:54:04.830Z,970.99
2019-05-10T11:55:05.004Z,971.22
2019-05-10T11:57:13.592Z,970.97
2019-05-10T11:58:12.265Z,971.11
2019-05-10T11:59:05.808Z,971.17
2019-05-10T11:59:06.456Z,971.11
2019-05-10T12:00:28.297Z,971.08
2019-05-10T12:01:19.197Z,971.29
2019-05-10T12:02:10.592Z,971.29
2019-05-10T12:03:18.287Z,971.29
2019-05-10T12:04:12.884Z,971.23
2019-05-10T12:07:12.788Z,971.12
2019-05-10T12:08:05.232Z,971.32
2019-05-10T12:08:08.187Z,971.18
2019-05-10T12:09:05.160Z,971.13
2019-05-10T12:10:24.872Z,971.27
2019-05-10T12:11:32.320Z,971.18
2019-05-10T12:12:04.882Z,971.30
2019-05-10T12:13:20.658Z,971.38
2019-05-10T12:14:05.155Z,971.32
2019-05-10T12:15:05.332Z,971.41
2019-05-10T12:16:04.577Z,971.37
2019-05-10T12:17:06.878Z,971.31
2019-05-10T12:18:05.651Z,971.31
2019-05-10T12:20:04.567Z,971.54
2019-05-10T12:21:10.860Z,971.28
2019-05-10T12:21:11.445Z,971.48
2019-05-10T12:22:06.390Z,971.42
2019-05-10T12:23:04.912Z,971.45
2019-05-10T12:24:44.958Z,971.36
2019-05-10T12:25:37.445Z,971.41
2019-05-10T12:26:40.359Z,971.23
2019-05-10T12:27:10.718Z,971.50
2019-05-10T12:27:28.700Z,971.50
2019-05-10T12:28:05.491Z,971.44
2019-05-10T12:29:16.890Z,971.49
2019-05-10T12:30:04.955Z,971.44
2019-05-10T12:31:13.321Z,971.55